Curry Rivel, United Kingdom
Current Conditions -  °F | °C
As of 7:50 AM on Saturday 25 Oct 2014 (Local Time) from EGDY Reporting Station
Broken Clouds Broken Clouds  
Wind Chill: 11°   Ceiling: 3800
Heat Index: 11°   Visibility: 6mi
Dew Point:   Wind: 9mph
Humidity: 76%   Direction: 200°SSW
Pressure: 30.03"   Gusts: NA
Location:  51.02°N, 2.87°W
Report Text: EGDY 250650Z AUTO 20008KT 9999 BKN038/// BKN049/// 11/07 Q1017
Loading
Personal Weather Stations






























Interactive Weather Map
Tropical Storm Tracking
New forecast layout! Learn more

10-Day Weather Forecast

Advertisements
Track Severe Weather on mobile